sensor_id;sensor_type;location;lat;lon;timestamp;pressure;altitude;pressure_sealevel;temperature;humidity
35892;BME280;21993;42.672;23.296;2022-07-04T00:02:11;94938.59;;;25.10;49.14
35892;BME280;21993;42.672;23.296;2022-07-04T00:04:36;94943.81;;;25.05;49.41
35892;BME280;21993;42.672;23.296;2022-07-04T00:07:02;94940.97;;;24.93;50.02
35892;BME280;21993;42.672;23.296;2022-07-04T00:09:27;94952.72;;;24.98;49.64
35892;BME280;21993;42.672;23.296;2022-07-04T00:11:53;94950.22;;;25.04;49.49
35892;BME280;21993;42.672;23.296;2022-07-04T00:14:18;94947.63;;;24.90;50.00
35892;BME280;21993;42.672;23.296;2022-07-04T00:16:44;94947.44;;;24.85;50.58
35892;BME280;21993;42.672;23.296;2022-07-04T00:19:09;94939.13;;;24.93;50.18
35892;BME280;21993;42.672;23.296;2022-07-04T00:21:35;94952.00;;;24.85;50.35
35892;BME280;21993;42.672;23.296;2022-07-04T00:24:00;94946.19;;;24.88;50.45
35892;BME280;21993;42.672;23.296;2022-07-04T00:26:26;94944.94;;;24.90;50.10
35892;BME280;21993;42.672;23.296;2022-07-04T00:28:53;94938.84;;;24.77;50.39
35892;BME280;21993;42.672;23.296;2022-07-04T00:31:18;94938.38;;;24.80;50.38
35892;BME280;21993;42.672;23.296;2022-07-04T00:33:44;94932.97;;;24.86;50.25
35892;BME280;21993;42.672;23.296;2022-07-04T00:36:09;94942.34;;;24.77;50.46
35892;BME280;21993;42.672;23.296;2022-07-04T00:38:35;94938.06;;;24.69;50.46
35892;BME280;21993;42.672;23.296;2022-07-04T00:41:00;94934.00;;;24.60;50.69
35892;BME280;21993;42.672;23.296;2022-07-04T00:43:27;94925.59;;;24.50;50.93
35892;BME280;21993;42.672;23.296;2022-07-04T00:45:53;94928.75;;;24.40;51.11
35892;BME280;21993;42.672;23.296;2022-07-04T00:48:18;94932.50;;;24.26;50.59
35892;BME280;21993;42.672;23.296;2022-07-04T00:50:48;94931.72;;;24.19;50.86
35892;BME280;21993;42.672;23.296;2022-07-04T00:53:14;94920.50;;;24.29;50.60
35892;BME280;21993;42.672;23.296;2022-07-04T00:55:40;94927.63;;;24.10;50.73
35892;BME280;21993;42.672;23.296;2022-07-04T00:58:07;94919.56;;;24.17;50.80
35892;BME280;21993;42.672;23.296;2022-07-04T01:00:33;94929.59;;;24.28;50.54
35892;BME280;21993;42.672;23.296;2022-07-04T01:02:58;94932.69;;;24.31;50.70
35892;BME280;21993;42.672;23.296;2022-07-04T01:05:24;94927.16;;;24.33;50.32
35892;BME280;21993;42.672;23.296;2022-07-04T01:07:49;94926.75;;;24.23;50.25
35892;BME280;21993;42.672;23.296;2022-07-04T01:10:15;94918.97;;;24.14;50.82
35892;BME280;21993;42.672;23.296;2022-07-04T01:12:41;94921.19;;;24.24;50.80
35892;BME280;21993;42.672;23.296;2022-07-04T01:15:07;94921.00;;;24.19;50.51
35892;BME280;21993;42.672;23.296;2022-07-04T01:17:32;94920.56;;;24.22;50.84
35892;BME280;21993;42.672;23.296;2022-07-04T01:19:58;94936.25;;;24.19;50.45
35892;BME280;21993;42.672;23.296;2022-07-04T01:22:24;94938.38;;;24.10;50.61
35892;BME280;21993;42.672;23.296;2022-07-04T01:24:50;94935.69;;;24.10;50.59
35892;BME280;21993;42.672;23.296;2022-07-04T01:27:16;94942.69;;;24.11;50.49
35892;BME280;21993;42.672;23.296;2022-07-04T01:29:44;94926.00;;;24.09;50.79
35892;BME280;21993;42.672;23.296;2022-07-04T01:32:10;94927.47;;;24.05;50.43
35892;BME280;21993;42.672;23.296;2022-07-04T01:34:35;94925.22;;;23.95;50.76
35892;BME280;21993;42.672;23.296;2022-07-04T01:37:01;94923.47;;;23.69;50.83
35892;BME280;21993;42.672;23.296;2022-07-04T01:39:28;94927.19;;;23.68;51.10
35892;BME280;21993;42.672;23.296;2022-07-04T01:41:54;94933.13;;;23.83;51.22
35892;BME280;21993;42.672;23.296;2022-07-04T01:44:19;94924.50;;;23.75;51.01
35892;BME280;21993;42.672;23.296;2022-07-04T01:46:45;94939.34;;;23.57;51.24
35892;BME280;21993;42.672;23.296;2022-07-04T01:49:11;94932.38;;;23.63;51.24
35892;BME280;21993;42.672;23.296;2022-07-04T01:51:46;94945.13;;;23.61;50.92
35892;BME280;21993;42.672;23.296;2022-07-04T01:54:12;94926.72;;;23.78;50.83
35892;BME280;21993;42.672;23.296;2022-07-04T01:56:39;94933.59;;;23.61;50.74
35892;BME280;21993;42.672;23.296;2022-07-04T01:59:04;94930.91;;;23.61;50.84
35892;BME280;21993;42.672;23.296;2022-07-04T02:01:30;94931.75;;;23.48;50.80
35892;BME280;21993;42.672;23.296;2022-07-04T02:04:00;94937.50;;;23.51;50.83
35892;BME280;21993;42.672;23.296;2022-07-04T02:06:26;94929.06;;;23.54;50.65
35892;BME280;21993;42.672;23.296;2022-07-04T02:08:53;94937.09;;;23.54;50.54
35892;BME280;21993;42.672;23.296;2022-07-04T02:11:37;94941.03;;;23.65;50.18
35892;BME280;21993;42.672;23.296;2022-07-04T02:14:22;94947.00;;;23.67;50.62
35892;BME280;21993;42.672;23.296;2022-07-04T02:16:47;94941.63;;;23.61;50.37
35892;BME280;21993;42.672;23.296;2022-07-04T02:19:13;94944.50;;;23.59;50.35
35892;BME280;21993;42.672;23.296;2022-07-04T02:21:38;94942.66;;;23.59;50.42
35892;BME280;21993;42.672;23.296;2022-07-04T02:24:04;94942.84;;;23.58;50.21
35892;BME280;21993;42.672;23.296;2022-07-04T02:26:30;94950.28;;;23.56;50.02
35892;BME280;21993;42.672;23.296;2022-07-04T02:28:55;94946.19;;;23.47;49.73
35892;BME280;21993;42.672;23.296;2022-07-04T02:31:21;94942.69;;;23.40;49.66
35892;BME280;21993;42.672;23.296;2022-07-04T02:33:46;94950.94;;;23.38;49.69
35892;BME280;21993;42.672;23.296;2022-07-04T02:36:12;94945.56;;;23.45;49.30
35892;BME280;21993;42.672;23.296;2022-07-04T02:38:37;94946.38;;;23.45;49.37
35892;BME280;21993;42.672;23.296;2022-07-04T02:41:02;94947.03;;;23.34;49.45
35892;BME280;21993;42.672;23.296;2022-07-04T02:43:28;94944.56;;;23.33;49.35
35892;BME280;21993;42.672;23.296;2022-07-04T02:45:53;94952.19;;;23.22;49.51
35892;BME280;21993;42.672;23.296;2022-07-04T02:48:19;94955.50;;;23.31;49.57
35892;BME280;21993;42.672;23.296;2022-07-04T02:50:44;94952.19;;;23.29;49.57
35892;BME280;21993;42.672;23.296;2022-07-04T02:53:10;94959.59;;;23.27;49.63
35892;BME280;21993;42.672;23.296;2022-07-04T02:55:35;94958.38;;;23.16;49.89
35892;BME280;21993;42.672;23.296;2022-07-04T02:58:01;94958.16;;;23.24;49.52
35892;BME280;21993;42.672;23.296;2022-07-04T03:00:26;94969.31;;;23.15;49.88
35892;BME280;21993;42.672;23.296;2022-07-04T03:02:53;94962.69;;;23.17;50.01
35892;BME280;21993;42.672;23.296;2022-07-04T03:05:19;94956.75;;;23.22;50.06
35892;BME280;21993;42.672;23.296;2022-07-04T03:07:45;94964.97;;;23.20;50.57
35892;BME280;21993;42.672;23.296;2022-07-04T03:10:10;94974.06;;;23.13;50.98
35892;BME280;21993;42.672;23.296;2022-07-04T03:12:36;94972.81;;;23.15;50.87
35892;BME280;21993;42.672;23.296;2022-07-04T03:15:02;94969.31;;;23.15;51.00
35892;BME280;21993;42.672;23.296;2022-07-04T03:17:27;94973.00;;;23.20;50.95
35892;BME280;21993;42.672;23.296;2022-07-04T03:19:55;94971.56;;;23.18;51.00
35892;BME280;21993;42.672;23.296;2022-07-04T03:22:21;94974.66;;;23.15;50.75
35892;BME280;21993;42.672;23.296;2022-07-04T03:24:46;94978.16;;;23.15;50.71
35892;BME280;21993;42.672;23.296;2022-07-04T03:27:12;94973.63;;;23.02;50.90
35892;BME280;21993;42.672;23.296;2022-07-04T03:29:37;94979.19;;;23.08;51.05
35892;BME280;21993;42.672;23.296;2022-07-04T03:32:03;94975.28;;;22.97;51.31
35892;BME280;21993;42.672;23.296;2022-07-04T03:34:28;94967.84;;;22.92;51.78
35892;BME280;21993;42.672;23.296;2022-07-04T03:36:54;94969.91;;;23.03;51.62
35892;BME280;21993;42.672;23.296;2022-07-04T03:39:19;94966.41;;;23.03;51.86
35892;BME280;21993;42.672;23.296;2022-07-04T03:41:45;94973.00;;;23.00;52.08
35892;BME280;21993;42.672;23.296;2022-07-04T03:44:10;94974.88;;;23.00;52.40
35892;BME280;21993;42.672;23.296;2022-07-04T03:46:36;94979.41;;;23.06;52.28
35892;BME280;21993;42.672;23.296;2022-07-04T03:49:01;94968.25;;;23.02;52.48
35892;BME280;21993;42.672;23.296;2022-07-04T03:51:27;94967.03;;;23.12;52.52
35892;BME280;21993;42.672;23.296;2022-07-04T03:53:52;94967.03;;;23.12;52.39
35892;BME280;21993;42.672;23.296;2022-07-04T03:56:18;94962.53;;;23.12;52.09
35892;BME280;21993;42.672;23.296;2022-07-04T03:58:43;94962.09;;;23.15;51.89
35892;BME280;21993;42.672;23.296;2022-07-04T04:01:17;94963.94;;;23.15;52.11
35892;BME280;21993;42.672;23.296;2022-07-04T04:03:43;94964.16;;;23.13;51.95
35892;BME280;21993;42.672;23.296;2022-07-04T04:06:27;94967.25;;;23.17;52.23
35892;BME280;21993;42.672;23.296;2022-07-04T04:08:53;94973.41;;;23.17;52.15
35892;BME280;21993;42.672;23.296;2022-07-04T04:11:18;94968.28;;;23.22;51.33
35892;BME280;21993;42.672;23.296;2022-07-04T04:13:44;94971.34;;;23.19;51.55
35892;BME280;21993;42.672;23.296;2022-07-04T04:16:09;94971.78;;;23.29;51.91
35892;BME280;21993;42.672;23.296;2022-07-04T04:18:35;94976.09;;;23.30;52.06
35892;BME280;21993;42.672;23.296;2022-07-04T04:21:00;94973.22;;;23.32;53.37
35892;BME280;21993;42.672;23.296;2022-07-04T04:23:26;94971.34;;;23.33;54.13
35892;BME280;21993;42.672;23.296;2022-07-04T04:25:51;94979.38;;;23.33;54.64
35892;BME280;21993;42.672;23.296;2022-07-04T04:28:17;94983.50;;;23.42;54.46
35892;BME280;21993;42.672;23.296;2022-07-04T04:30:42;94978.31;;;23.53;52.97
35892;BME280;21993;42.672;23.296;2022-07-04T04:33:08;94979.34;;;23.52;51.83
35892;BME280;21993;42.672;23.296;2022-07-04T04:35:33;94981.22;;;23.45;51.91
35892;BME280;21993;42.672;23.296;2022-07-04T04:37:59;94987.00;;;23.42;52.29
35892;BME280;21993;42.672;23.296;2022-07-04T04:40:24;94990.91;;;23.53;50.68
35892;BME280;21993;42.672;23.296;2022-07-04T04:42:50;94988.84;;;23.55;49.44
35892;BME280;21993;42.672;23.296;2022-07-04T04:45:15;94983.69;;;23.53;49.58
35892;BME280;21993;42.672;23.296;2022-07-04T04:47:41;94991.94;;;23.58;49.92
35892;BME280;21993;42.672;23.296;2022-07-04T04:50:09;94987.81;;;23.49;50.51
35892;BME280;21993;42.672;23.296;2022-07-04T04:52:40;94982.88;;;23.59;51.13
35892;BME280;21993;42.672;23.296;2022-07-04T04:55:06;94984.94;;;23.64;52.09
35892;BME280;21993;42.672;23.296;2022-07-04T04:57:32;94989.66;;;23.62;52.75
35892;BME280;21993;42.672;23.296;2022-07-04T04:59:57;94978.75;;;23.64;51.87
35892;BME280;21993;42.672;23.296;2022-07-04T05:02:22;94988.41;;;23.58;52.52
35892;BME280;21993;42.672;23.296;2022-07-04T05:04:48;94980.63;;;23.63;52.58
35892;BME280;21993;42.672;23.296;2022-07-04T05:07:13;94988.22;;;23.66;53.16
35892;BME280;21993;42.672;23.296;2022-07-04T05:09:39;94986.31;;;23.86;52.99
35892;BME280;21993;42.672;23.296;2022-07-04T05:12:04;94981.75;;;24.00;52.45
35892;BME280;21993;42.672;23.296;2022-07-04T05:14:30;94986.31;;;23.93;52.53
35892;BME280;21993;42.672;23.296;2022-07-04T05:16:56;94979.03;;;24.13;52.19
35892;BME280;21993;42.672;23.296;2022-07-04T05:19:21;94978.38;;;24.11;51.84
35892;BME280;21993;42.672;23.296;2022-07-04T05:21:47;94976.75;;;24.10;51.37
35892;BME280;21993;42.672;23.296;2022-07-04T05:24:13;94977.00;;;23.96;52.38
35892;BME280;21993;42.672;23.296;2022-07-04T05:26:38;94974.53;;;23.94;53.03
35892;BME280;21993;42.672;23.296;2022-07-04T05:29:04;94981.13;;;24.05;53.25
35892;BME280;21993;42.672;23.296;2022-07-04T05:31:29;94977.53;;;24.24;52.80
35892;BME280;21993;42.672;23.296;2022-07-04T05:33:54;94977.78;;;24.09;52.80
35892;BME280;21993;42.672;23.296;2022-07-04T05:36:21;94975.91;;;24.10;52.72
35892;BME280;21993;42.672;23.296;2022-07-04T05:38:47;94978.38;;;24.11;53.35
35892;BME280;21993;42.672;23.296;2022-07-04T05:41:12;94983.28;;;24.28;51.94
35892;BME280;21993;42.672;23.296;2022-07-04T05:43:38;94986.19;;;24.33;51.83
35892;BME280;21993;42.672;23.296;2022-07-04T05:46:03;94981.19;;;24.36;51.38
35892;BME280;21993;42.672;23.296;2022-07-04T05:48:29;94983.28;;;24.34;51.96
35892;BME280;21993;42.672;23.296;2022-07-04T05:50:55;94976.94;;;24.60;52.12
35892;BME280;21993;42.672;23.296;2022-07-04T05:53:20;94978.28;;;24.76;51.14
35892;BME280;21993;42.672;23.296;2022-07-04T05:55:46;94981.81;;;24.77;50.86
35892;BME280;21993;42.672;23.296;2022-07-04T05:58:11;94981.63;;;24.71;50.04
35892;BME280;21993;42.672;23.296;2022-07-04T06:00:40;94980.63;;;24.66;50.40
35892;BME280;21993;42.672;23.296;2022-07-04T06:03:06;94983.91;;;24.68;51.05
35892;BME280;21993;42.672;23.296;2022-07-04T06:05:32;94986.72;;;24.80;51.12
35892;BME280;21993;42.672;23.296;2022-07-04T06:07:58;94981.75;;;24.83;50.42
35892;BME280;21993;42.672;23.296;2022-07-04T06:10:23;94981.34;;;24.80;49.56
35892;BME280;21993;42.672;23.296;2022-07-04T06:12:48;94981.41;;;25.05;49.20
35892;BME280;21993;42.672;23.296;2022-07-04T06:15:14;94978.94;;;25.03;48.98
35892;BME280;21993;42.672;23.296;2022-07-04T06:17:41;94987.34;;;25.13;48.24
35892;BME280;21993;42.672;23.296;2022-07-04T06:20:07;94986.59;;;25.31;47.12
35892;BME280;21993;42.672;23.296;2022-07-04T06:22:44;94985.84;;;25.24;47.09
35892;BME280;21993;42.672;23.296;2022-07-04T06:25:15;94977.50;;;25.32;47.69
35892;BME280;21993;42.672;23.296;2022-07-04T06:27:41;94975.56;;;25.39;46.75
35892;BME280;21993;42.672;23.296;2022-07-04T06:30:08;94970.31;;;25.26;47.83
35892;BME280;21993;42.672;23.296;2022-07-04T06:32:54;94980.44;;;25.24;49.41
35892;BME280;21993;42.672;23.296;2022-07-04T06:35:31;94978.38;;;25.26;47.75
35892;BME280;21993;42.672;23.296;2022-07-04T06:38:23;94971.66;;;25.35;47.41
35892;BME280;21993;42.672;23.296;2022-07-04T06:40:58;94979.41;;;25.50;46.27
35892;BME280;21993;42.672;23.296;2022-07-04T06:43:24;94978.44;;;25.63;46.32
35892;BME280;21993;42.672;23.296;2022-07-04T06:45:50;94971.69;;;25.78;45.13
35892;BME280;21993;42.672;23.296;2022-07-04T06:48:17;94963.25;;;25.75;45.38
35892;BME280;21993;42.672;23.296;2022-07-04T06:50:43;94972.38;;;25.92;45.11
35892;BME280;21993;42.672;23.296;2022-07-04T06:53:09;94962.88;;;26.08;44.79
35892;BME280;21993;42.672;23.296;2022-07-04T06:55:38;94961.31;;;26.00;44.69
35892;BME280;21993;42.672;23.296;2022-07-04T06:58:05;94964.28;;;26.10;44.46
35892;BME280;21993;42.672;23.296;2022-07-04T07:00:31;94954.31;;;26.29;43.36
35892;BME280;21993;42.672;23.296;2022-07-04T07:02:57;94957.97;;;26.35;43.53
35892;BME280;21993;42.672;23.296;2022-07-04T07:05:24;94964.34;;;26.22;45.10
35892;BME280;21993;42.672;23.296;2022-07-04T07:07:50;94960.94;;;26.15;44.87
35892;BME280;21993;42.672;23.296;2022-07-04T07:10:15;94941.81;;;26.35;43.79
35892;BME280;21993;42.672;23.296;2022-07-04T07:12:41;94946.78;;;26.38;43.64
35892;BME280;21993;42.672;23.296;2022-07-04T07:15:07;94949.47;;;26.38;43.86
35892;BME280;21993;42.672;23.296;2022-07-04T07:17:32;94943.00;;;26.57;44.25
35892;BME280;21993;42.672;23.296;2022-07-04T07:19:58;94934.78;;;26.52;44.20
35892;BME280;21993;42.672;23.296;2022-07-04T07:22:23;94943.81;;;26.58;44.46
35892;BME280;21993;42.672;23.296;2022-07-04T07:24:49;94938.72;;;26.80;43.51
35892;BME280;21993;42.672;23.296;2022-07-04T07:27:14;94948.47;;;26.92;43.46
35892;BME280;21993;42.672;23.296;2022-07-04T07:29:40;94944.63;;;27.00;43.79
35892;BME280;21993;42.672;23.296;2022-07-04T07:32:05;94939.44;;;26.87;45.17
35892;BME280;21993;42.672;23.296;2022-07-04T07:34:31;94936.09;;;27.03;44.12
35892;BME280;21993;42.672;23.296;2022-07-04T07:36:57;94938.94;;;27.08;44.23
35892;BME280;21993;42.672;23.296;2022-07-04T07:39:23;94937.63;;;27.23;43.67
35892;BME280;21993;42.672;23.296;2022-07-04T07:41:48;94928.97;;;27.20;44.29
35892;BME280;21993;42.672;23.296;2022-07-04T07:44:13;94941.88;;;27.18;45.34
35892;BME280;21993;42.672;23.296;2022-07-04T07:46:40;94936.13;;;27.38;44.31
35892;BME280;21993;42.672;23.296;2022-07-04T07:49:05;94931.56;;;27.51;43.44
35892;BME280;21993;42.672;23.296;2022-07-04T07:51:31;94932.50;;;27.44;44.63
35892;BME280;21993;42.672;23.296;2022-07-04T07:53:56;94930.03;;;27.55;44.28
35892;BME280;21993;42.672;23.296;2022-07-04T07:56:22;94924.78;;;27.71;43.31
35892;BME280;21993;42.672;23.296;2022-07-04T07:58:48;94921.25;;;27.71;43.68
35892;BME280;21993;42.672;23.296;2022-07-04T08:01:14;94922.53;;;27.57;45.24
35892;BME280;21993;42.672;23.296;2022-07-04T08:03:39;94924.78;;;27.71;44.49
35892;BME280;21993;42.672;23.296;2022-07-04T08:06:23;94919.13;;;27.73;44.74
35892;BME280;21993;42.672;23.296;2022-07-04T08:08:49;94919.47;;;27.88;43.15
35892;BME280;21993;42.672;23.296;2022-07-04T08:11:16;94918.06;;;27.86;44.02
35892;BME280;21993;42.672;23.296;2022-07-04T08:13:41;94920.75;;;27.86;44.33
35892;BME280;21993;42.672;23.296;2022-07-04T08:16:07;94919.44;;;28.00;44.37
35892;BME280;21993;42.672;23.296;2022-07-04T08:18:33;94920.13;;;28.07;44.40
35892;BME280;21993;42.672;23.296;2022-07-04T08:20:59;94919.28;;;28.18;44.46
35892;BME280;21993;42.672;23.296;2022-07-04T08:23:26;94920.03;;;28.42;43.54
35892;BME280;21993;42.672;23.296;2022-07-04T08:25:52;94914.16;;;28.45;42.48
35892;BME280;21993;42.672;23.296;2022-07-04T08:28:17;94916.22;;;28.55;42.97
35892;BME280;21993;42.672;23.296;2022-07-04T08:30:43;94906.66;;;28.64;42.58
35892;BME280;21993;42.672;23.296;2022-07-04T08:33:08;94916.88;;;28.62;43.87
35892;BME280;21993;42.672;23.296;2022-07-04T08:35:34;94907.00;;;28.68;42.87
35892;BME280;21993;42.672;23.296;2022-07-04T08:38:00;94913.22;;;28.68;43.50
35892;BME280;21993;42.672;23.296;2022-07-04T08:40:28;94900.69;;;28.79;43.31
35892;BME280;21993;42.672;23.296;2022-07-04T08:42:54;94906.88;;;28.91;43.13
35892;BME280;21993;42.672;23.296;2022-07-04T08:45:27;94901.16;;;29.04;43.37
35892;BME280;21993;42.672;23.296;2022-07-04T08:48:05;94897.53;;;29.15;42.21
35892;BME280;21993;42.672;23.296;2022-07-04T08:50:37;94902.38;;;29.13;43.52
35892;BME280;21993;42.672;23.296;2022-07-04T08:53:15;94898.28;;;29.28;42.37
35892;BME280;21993;42.672;23.296;2022-07-04T08:55:41;94899.53;;;29.20;43.80
35892;BME280;21993;42.672;23.296;2022-07-04T08:58:27;94896.41;;;29.28;43.81
35892;BME280;21993;42.672;23.296;2022-07-04T09:00:57;94893.41;;;29.47;43.60
35892;BME280;21993;42.672;23.296;2022-07-04T09:03:24;94900.63;;;29.41;42.99
35892;BME280;21993;42.672;23.296;2022-07-04T09:05:51;94892.13;;;29.49;43.29
35892;BME280;21993;42.672;23.296;2022-07-04T09:08:16;94888.81;;;29.64;43.30
35892;BME280;21993;42.672;23.296;2022-07-04T09:10:42;94898.53;;;29.82;42.04
35892;BME280;21993;42.672;23.296;2022-07-04T09:13:09;94899.34;;;29.82;41.91
35892;BME280;21993;42.672;23.296;2022-07-04T09:15:35;94886.81;;;29.76;41.42
35892;BME280;21993;42.672;23.296;2022-07-04T09:18:02;94882.16;;;29.71;41.88
35892;BME280;21993;42.672;23.296;2022-07-04T09:20:30;94889.50;;;29.76;42.45
35892;BME280;21993;42.672;23.296;2022-07-04T09:22:56;94892.31;;;30.03;41.70
35892;BME280;21993;42.672;23.296;2022-07-04T09:25:23;94894.13;;;29.97;41.21
35892;BME280;21993;42.672;23.296;2022-07-04T09:27:56;94886.97;;;29.86;42.89
35892;BME280;21993;42.672;23.296;2022-07-04T09:30:26;94887.47;;;30.05;41.28
35892;BME280;21993;42.672;23.296;2022-07-04T09:32:54;94889.81;;;30.02;42.08
35892;BME280;21993;42.672;23.296;2022-07-04T09:35:26;94874.84;;;30.11;40.89
35892;BME280;21993;42.672;23.296;2022-07-04T09:37:56;94879.19;;;30.12;40.77
35892;BME280;21993;42.672;23.296;2022-07-04T09:42:54;94870.16;;;30.28;40.48
35892;BME280;21993;42.672;23.296;2022-07-04T09:45:21;94865.56;;;30.29;40.69
35892;BME280;21993;42.672;23.296;2022-07-04T09:47:50;94858.28;;;30.34;41.67
35892;BME280;21993;42.672;23.296;2022-07-04T09:50:18;94867.91;;;30.47;41.12
35892;BME280;21993;42.672;23.296;2022-07-04T09:53:00;94877.06;;;30.68;40.44
35892;BME280;21993;42.672;23.296;2022-07-04T09:55:37;94867.84;;;30.69;39.79
35892;BME280;21993;42.672;23.296;2022-07-04T09:58:08;94872.88;;;30.82;39.80
35892;BME280;21993;42.672;23.296;2022-07-04T10:00:40;94859.38;;;30.87;40.28
35892;BME280;21993;42.672;23.296;2022-07-04T10:03:25;94859.56;;;30.80;40.88
35892;BME280;21993;42.672;23.296;2022-07-04T10:06:07;94865.06;;;30.91;40.60
35892;BME280;21993;42.672;23.296;2022-07-04T10:08:34;94873.00;;;30.97;39.88
35892;BME280;21993;42.672;23.296;2022-07-04T10:11:01;94871.44;;;31.06;39.29
35892;BME280;21993;42.672;23.296;2022-07-04T10:13:27;94877.72;;;31.12;39.23
35892;BME280;21993;42.672;23.296;2022-07-04T10:15:53;94879.78;;;31.00;39.74
35892;BME280;21993;42.672;23.296;2022-07-04T10:18:21;94872.69;;;30.94;39.88
35892;BME280;21993;42.672;23.296;2022-07-04T10:20:48;94869.22;;;30.98;40.13
35892;BME280;21993;42.672;23.296;2022-07-04T10:23:15;94867.56;;;30.97;39.74
35892;BME280;21993;42.672;23.296;2022-07-04T10:25:41;94865.69;;;30.98;40.17
35892;BME280;21993;42.672;23.296;2022-07-04T10:28:09;94860.88;;;31.10;40.08
35892;BME280;21993;42.672;23.296;2022-07-04T10:30:37;94866.28;;;31.05;39.98
35892;BME280;21993;42.672;23.296;2022-07-04T10:33:05;94854.53;;;30.94;39.47
35892;BME280;21993;42.672;23.296;2022-07-04T10:35:55;94854.84;;;30.98;40.24
35892;BME280;21993;42.672;23.296;2022-07-04T10:38:23;94850.00;;;31.05;39.97
35892;BME280;21993;42.672;23.296;2022-07-04T10:40:51;94856.69;;;30.92;40.63
35892;BME280;21993;42.672;23.296;2022-07-04T10:48:56;94854.03;;;31.02;38.66
35892;BME280;21993;42.672;23.296;2022-07-04T10:56:42;94835.25;;;31.23;39.51
35892;BME280;21993;42.672;23.296;2022-07-04T10:59:10;94821.19;;;31.31;39.70
35892;BME280;21993;42.672;23.296;2022-07-04T11:01:36;94818.00;;;31.44;38.74
35892;BME280;21993;42.672;23.296;2022-07-04T11:04:02;94830.25;;;31.52;39.49
35892;BME280;21993;42.672;23.296;2022-07-04T11:09:24;94826.44;;;31.48;39.84
35892;BME280;21993;42.672;23.296;2022-07-04T11:11:56;94812.66;;;31.59;39.36
35892;BME280;21993;42.672;23.296;2022-07-04T11:17:14;94809.16;;;31.64;38.74
35892;BME280;21993;42.672;23.296;2022-07-04T11:19:41;94823.22;;;31.61;40.06
35892;BME280;21993;42.672;23.296;2022-07-04T11:22:09;94813.78;;;31.69;38.33
35892;BME280;21993;42.672;23.296;2022-07-04T11:24:38;94822.97;;;31.57;38.75
35892;BME280;21993;42.672;23.296;2022-07-04T11:27:07;94814.25;;;31.55;38.91
35892;BME280;21993;42.672;23.296;2022-07-04T11:29:34;94820.81;;;31.64;38.79
35892;BME280;21993;42.672;23.296;2022-07-04T11:32:00;94823.91;;;31.83;38.46
35892;BME280;21993;42.672;23.296;2022-07-04T11:34:31;94814.09;;;31.77;38.65
35892;BME280;21993;42.672;23.296;2022-07-04T11:36:56;94812.78;;;31.80;38.02
35892;BME280;21993;42.672;23.296;2022-07-04T11:39:23;94811.69;;;31.81;38.58
35892;BME280;21993;42.672;23.296;2022-07-04T11:41:52;94800.06;;;31.96;37.92
35892;BME280;21993;42.672;23.296;2022-07-04T11:44:39;94795.75;;;32.10;37.65
35892;BME280;21993;42.672;23.296;2022-07-04T11:47:33;94796.78;;;31.88;39.01
35892;BME280;21993;42.672;23.296;2022-07-04T11:50:07;94791.34;;;31.88;38.81
35892;BME280;21993;42.672;23.296;2022-07-04T11:55:03;94781.06;;;32.01;38.10
35892;BME280;21993;42.672;23.296;2022-07-04T11:57:33;94772.66;;;31.97;37.90
35892;BME280;21993;42.672;23.296;2022-07-04T12:00:03;94776.44;;;31.96;37.99
35892;BME280;21993;42.672;23.296;2022-07-04T12:02:30;94773.69;;;31.86;39.03
35892;BME280;21993;42.672;23.296;2022-07-04T12:04:56;94771.72;;;31.71;38.92
35892;BME280;21993;42.672;23.296;2022-07-04T12:07:24;94765.53;;;31.81;38.43
35892;BME280;21993;42.672;23.296;2022-07-04T12:09:51;94763.94;;;31.90;38.79
35892;BME280;21993;42.672;23.296;2022-07-04T12:12:18;94758.25;;;31.97;38.88
35892;BME280;21993;42.672;23.296;2022-07-04T12:15:16;94753.38;;;32.19;37.35
35892;BME280;21993;42.672;23.296;2022-07-04T12:17:41;94755.53;;;32.12;38.31
35892;BME280;21993;42.672;23.296;2022-07-04T12:20:14;94762.34;;;32.14;38.42
35892;BME280;21993;42.672;23.296;2022-07-04T12:22:42;94758.28;;;32.17;39.22
35892;BME280;21993;42.672;23.296;2022-07-04T12:25:23;94746.38;;;32.33;38.72
35892;BME280;21993;42.672;23.296;2022-07-04T12:28:05;94749.09;;;32.33;38.13
35892;BME280;21993;42.672;23.296;2022-07-04T12:30:35;94748.28;;;32.33;37.47
35892;BME280;21993;42.672;23.296;2022-07-04T12:33:03;94748.22;;;32.28;38.14
35892;BME280;21993;42.672;23.296;2022-07-04T12:38:12;94740.94;;;32.33;37.68
35892;BME280;21993;42.672;23.296;2022-07-04T12:40:59;94747.19;;;32.39;38.09
35892;BME280;21993;42.672;23.296;2022-07-04T12:43:48;94752.34;;;32.40;38.03
35892;BME280;21993;42.672;23.296;2022-07-04T12:48:50;94744.97;;;32.15;38.99
35892;BME280;21993;42.672;23.296;2022-07-04T12:51:23;94738.97;;;32.29;38.28
35892;BME280;21993;42.672;23.296;2022-07-04T12:53:51;94740.88;;;32.18;39.23
35892;BME280;21993;42.672;23.296;2022-07-04T12:59:03;94740.41;;;32.31;39.12
35892;BME280;21993;42.672;23.296;2022-07-04T13:01:28;94748.50;;;32.21;38.56
35892;BME280;21993;42.672;23.296;2022-07-04T13:03:54;94740.88;;;32.18;39.68
35892;BME280;21993;42.672;23.296;2022-07-04T13:06:20;94740.06;;;32.17;38.70
35892;BME280;21993;42.672;23.296;2022-07-04T13:08:46;94734.66;;;32.22;38.28
35892;BME280;21993;42.672;23.296;2022-07-04T13:11:12;94730.88;;;32.34;38.55
35892;BME280;21993;42.672;23.296;2022-07-04T13:13:56;94730.88;;;32.34;38.88
35892;BME280;21993;42.672;23.296;2022-07-04T13:16:21;94737.13;;;32.29;39.52
35892;BME280;21993;42.672;23.296;2022-07-04T13:18:47;94726.81;;;32.31;39.25
35892;BME280;21993;42.672;23.296;2022-07-04T13:21:12;94720.25;;;32.27;38.94
35892;BME280;21993;42.672;23.296;2022-07-04T13:23:38;94724.91;;;32.32;38.86